Terminal Aerodrome Forecast
Issued by NWS

Home | Current Version | Previous Version | Graphics & Text | Print | Product List | Glossary On
Versions: 1 2 3 4 5 6 7 8 9 10 11 12 13 14 15 16 17 18 19 20 21 22 23 24
000
FTUS43 KMPX 251700
TAFRWF
TAF
KRWF 251734Z 2518/2618 19007KT P6SM BKN050 OVC080
     FM252200 16008KT P6SM SCT025 OVC080
     FM260400 13009KT 4SM -SN OVC025
     FM260700 08007KT 1 1/2SM -SN OVC015
      TEMPO 2609/2613 3/4SM -SN VV007
     FM261400 02011KT 2SM -SN OVC012=

USA.gov is the U.S. government's official web portal to all federal, state and local government web resources and services.